sensor_id;sensor_type;location;lat;lon;timestamp;pressure;altitude;pressure_sealevel;temperature;humidity
71621;BME280;59471;42.254;23.102;2023-07-13T00:01:48;96183.31;;;20.36;72.20
71621;BME280;59471;42.254;23.102;2023-07-13T00:04:19;96184.97;;;20.37;72.14
71621;BME280;59471;42.254;23.102;2023-07-13T00:06:48;96178.00;;;20.36;71.89
71621;BME280;59471;42.254;23.102;2023-07-13T00:09:14;96186.09;;;20.41;71.75
71621;BME280;59471;42.254;23.102;2023-07-13T00:11:41;96189.09;;;20.33;72.01
71621;BME280;59471;42.254;23.102;2023-07-13T00:14:08;96181.81;;;20.28;72.14
71621;BME280;59471;42.254;23.102;2023-07-13T00:16:36;96183.53;;;20.23;72.55
71621;BME280;59471;42.254;23.102;2023-07-13T00:19:03;96188.59;;;20.01;72.76
71621;BME280;59471;42.254;23.102;2023-07-13T00:21:29;96183.25;;;19.89;73.43
71621;BME280;59471;42.254;23.102;2023-07-13T00:23:55;96185.69;;;19.90;73.73
71621;BME280;59471;42.254;23.102;2023-07-13T00:26:20;96179.81;;;20.00;72.77
71621;BME280;59471;42.254;23.102;2023-07-13T00:28:46;96181.88;;;19.98;73.11
71621;BME280;59471;42.254;23.102;2023-07-13T00:31:12;96179.34;;;20.03;72.87
71621;BME280;59471;42.254;23.102;2023-07-13T00:33:41;96174.72;;;20.10;72.68
71621;BME280;59471;42.254;23.102;2023-07-13T00:36:08;96174.03;;;20.03;72.91
71621;BME280;59471;42.254;23.102;2023-07-13T00:38:35;96172.53;;;20.07;72.84
71621;BME280;59471;42.254;23.102;2023-07-13T00:41:02;96175.66;;;20.04;72.63
71621;BME280;59471;42.254;23.102;2023-07-13T00:43:29;96177.59;;;19.97;73.10
71621;BME280;59471;42.254;23.102;2023-07-13T00:48:24;96174.44;;;19.77;74.32
71621;BME280;59471;42.254;23.102;2023-07-13T00:50:53;96172.16;;;19.92;73.45
71621;BME280;59471;42.254;23.102;2023-07-13T00:53:21;96172.16;;;19.80;73.92
71621;BME280;59471;42.254;23.102;2023-07-13T00:55:49;96169.69;;;19.79;73.75
71621;BME280;59471;42.254;23.102;2023-07-13T00:58:17;96176.38;;;19.70;74.36
71621;BME280;59471;42.254;23.102;2023-07-13T01:00:43;96178.28;;;19.62;74.56
71621;BME280;59471;42.254;23.102;2023-07-13T01:03:08;96177.34;;;19.57;74.89
71621;BME280;59471;42.254;23.102;2023-07-13T01:05:35;96184.41;;;19.63;74.70
71621;BME280;59471;42.254;23.102;2023-07-13T01:08:02;96187.00;;;19.51;75.10
71621;BME280;59471;42.254;23.102;2023-07-13T01:10:30;96181.00;;;19.44;75.32
71621;BME280;59471;42.254;23.102;2023-07-13T01:13:02;96171.81;;;19.58;74.96
71621;BME280;59471;42.254;23.102;2023-07-13T01:15:45;96184.50;;;19.56;74.85
71621;BME280;59471;42.254;23.102;2023-07-13T01:18:21;96191.16;;;19.47;75.06
71621;BME280;59471;42.254;23.102;2023-07-13T01:20:57;96188.53;;;19.29;75.93
71621;BME280;59471;42.254;23.102;2023-07-13T01:23:25;96191.31;;;19.52;75.43
71621;BME280;59471;42.254;23.102;2023-07-13T01:25:52;96188.50;;;19.47;75.27
71621;BME280;59471;42.254;23.102;2023-07-13T01:28:18;96189.44;;;19.22;76.10
71621;BME280;59471;42.254;23.102;2023-07-13T01:30:45;96189.94;;;19.31;75.95
71621;BME280;59471;42.254;23.102;2023-07-13T01:33:16;96194.63;;;19.17;76.57
71621;BME280;59471;42.254;23.102;2023-07-13T01:35:43;96194.44;;;19.31;76.27
71621;BME280;59471;42.254;23.102;2023-07-13T01:38:10;96183.09;;;19.24;75.94
71621;BME280;59471;42.254;23.102;2023-07-13T01:40:38;96186.03;;;19.34;75.61
71621;BME280;59471;42.254;23.102;2023-07-13T01:43:03;96184.19;;;19.34;75.64
71621;BME280;59471;42.254;23.102;2023-07-13T01:45:30;96191.19;;;19.29;75.74
71621;BME280;59471;42.254;23.102;2023-07-13T01:47:56;96179.56;;;19.30;75.44
71621;BME280;59471;42.254;23.102;2023-07-13T01:50:21;96186.47;;;19.31;75.73
71621;BME280;59471;42.254;23.102;2023-07-13T01:52:47;96188.09;;;19.32;75.59
71621;BME280;59471;42.254;23.102;2023-07-13T01:55:12;96181.16;;;19.31;75.77
71621;BME280;59471;42.254;23.102;2023-07-13T01:57:39;96177.47;;;19.32;75.42
71621;BME280;59471;42.254;23.102;2023-07-13T02:00:06;96181.97;;;19.31;75.55
71621;BME280;59471;42.254;23.102;2023-07-13T02:02:34;96180.53;;;19.17;76.37
71621;BME280;59471;42.254;23.102;2023-07-13T02:04:59;96182.50;;;19.03;76.76
71621;BME280;59471;42.254;23.102;2023-07-13T02:07:25;96185.31;;;19.08;76.42
71621;BME280;59471;42.254;23.102;2023-07-13T02:09:50;96182.66;;;19.08;76.74
71621;BME280;59471;42.254;23.102;2023-07-13T02:12:16;96182.50;;;19.03;76.67
71621;BME280;59471;42.254;23.102;2023-07-13T02:14:42;96187.69;;;18.98;77.02
71621;BME280;59471;42.254;23.102;2023-07-13T02:17:09;96195.94;;;18.90;77.18
71621;BME280;59471;42.254;23.102;2023-07-13T02:19:35;96183.56;;;18.84;77.44
71621;BME280;59471;42.254;23.102;2023-07-13T02:22:00;96188.13;;;18.95;77.03
71621;BME280;59471;42.254;23.102;2023-07-13T02:24:26;96186.81;;;19.04;76.33
71621;BME280;59471;42.254;23.102;2023-07-13T02:26:52;96199.47;;;19.02;76.66
71621;BME280;59471;42.254;23.102;2023-07-13T02:29:17;96196.81;;;19.02;76.41
71621;BME280;59471;42.254;23.102;2023-07-13T02:31:43;96199.19;;;18.92;76.64
71621;BME280;59471;42.254;23.102;2023-07-13T02:34:08;96199.56;;;18.95;76.69
71621;BME280;59471;42.254;23.102;2023-07-13T02:36:34;96199.75;;;18.94;76.93
71621;BME280;59471;42.254;23.102;2023-07-13T02:39:05;96212.47;;;18.92;77.42
71621;BME280;59471;42.254;23.102;2023-07-13T02:41:31;96212.97;;;19.01;76.77
71621;BME280;59471;42.254;23.102;2023-07-13T02:43:58;96210.81;;;18.91;76.36
71621;BME280;59471;42.254;23.102;2023-07-13T02:46:36;96205.81;;;18.83;76.92
71621;BME280;59471;42.254;23.102;2023-07-13T02:49:03;96208.84;;;18.86;76.81
71621;BME280;59471;42.254;23.102;2023-07-13T02:51:29;96212.53;;;18.60;77.97
71621;BME280;59471;42.254;23.102;2023-07-13T02:53:55;96209.13;;;18.78;77.56
71621;BME280;59471;42.254;23.102;2023-07-13T02:56:24;96212.44;;;18.73;77.43
71621;BME280;59471;42.254;23.102;2023-07-13T02:58:50;96214.72;;;18.88;76.74
71621;BME280;59471;42.254;23.102;2023-07-13T03:01:16;96206.19;;;18.86;76.94
71621;BME280;59471;42.254;23.102;2023-07-13T03:03:47;96213.25;;;18.74;76.84
71621;BME280;59471;42.254;23.102;2023-07-13T03:06:14;96204.63;;;18.79;77.26
71621;BME280;59471;42.254;23.102;2023-07-13T03:08:40;96209.03;;;18.85;76.96
71621;BME280;59471;42.254;23.102;2023-07-13T03:11:14;96207.97;;;18.67;77.43
71621;BME280;59471;42.254;23.102;2023-07-13T03:13:41;96205.97;;;18.63;77.56
71621;BME280;59471;42.254;23.102;2023-07-13T03:16:08;96209.97;;;18.72;77.17
71621;BME280;59471;42.254;23.102;2023-07-13T03:18:35;96197.16;;;18.44;78.53
71621;BME280;59471;42.254;23.102;2023-07-13T03:21:01;96209.34;;;18.51;78.47
71621;BME280;59471;42.254;23.102;2023-07-13T03:23:27;96210.97;;;18.52;78.39
71621;BME280;59471;42.254;23.102;2023-07-13T03:26:03;96217.84;;;18.60;78.02
71621;BME280;59471;42.254;23.102;2023-07-13T03:28:33;96218.00;;;18.65;77.78
71621;BME280;59471;42.254;23.102;2023-07-13T03:31:09;96214.59;;;18.58;78.46
71621;BME280;59471;42.254;23.102;2023-07-13T03:33:37;96222.41;;;18.71;78.00
71621;BME280;59471;42.254;23.102;2023-07-13T03:36:04;96222.72;;;18.63;77.93
71621;BME280;59471;42.254;23.102;2023-07-13T03:38:32;96223.19;;;18.79;77.58
71621;BME280;59471;42.254;23.102;2023-07-13T03:40:58;96222.28;;;18.66;78.18
71621;BME280;59471;42.254;23.102;2023-07-13T03:43:24;96227.13;;;18.69;77.82
71621;BME280;59471;42.254;23.102;2023-07-13T03:45:50;96218.59;;;18.67;78.40
71621;BME280;59471;42.254;23.102;2023-07-13T03:48:15;96223.22;;;18.72;77.92
71621;BME280;59471;42.254;23.102;2023-07-13T03:50:41;96220.09;;;18.82;77.87
71621;BME280;59471;42.254;23.102;2023-07-13T03:53:07;96223.06;;;18.73;78.25
71621;BME280;59471;42.254;23.102;2023-07-13T03:55:32;96222.81;;;18.75;78.58
71621;BME280;59471;42.254;23.102;2023-07-13T03:58:06;96222.63;;;18.77;78.93
71621;BME280;59471;42.254;23.102;2023-07-13T04:00:52;96224.16;;;18.84;78.15
71621;BME280;59471;42.254;23.102;2023-07-13T04:03:18;96219.53;;;18.80;79.25
71621;BME280;59471;42.254;23.102;2023-07-13T04:05:43;96216.00;;;18.86;78.85
71621;BME280;59471;42.254;23.102;2023-07-13T04:08:09;96218.78;;;18.91;79.16
71621;BME280;59471;42.254;23.102;2023-07-13T04:10:34;96224.53;;;19.06;78.37
71621;BME280;59471;42.254;23.102;2023-07-13T04:13:00;96214.38;;;19.21;78.28
71621;BME280;59471;42.254;23.102;2023-07-13T04:15:28;96226.16;;;19.26;77.87
71621;BME280;59471;42.254;23.102;2023-07-13T04:17:55;96221.72;;;19.19;78.10
71621;BME280;59471;42.254;23.102;2023-07-13T04:20:20;96226.31;;;19.12;78.87
71621;BME280;59471;42.254;23.102;2023-07-13T04:22:47;96216.50;;;19.13;78.24
71621;BME280;59471;42.254;23.102;2023-07-13T04:25:12;96223.56;;;19.37;77.24
71621;BME280;59471;42.254;23.102;2023-07-13T04:27:38;96225.16;;;19.75;74.30
71621;BME280;59471;42.254;23.102;2023-07-13T04:30:05;96230.81;;;19.79;74.23
71621;BME280;59471;42.254;23.102;2023-07-13T04:32:32;96225.31;;;19.92;73.03
71621;BME280;59471;42.254;23.102;2023-07-13T04:34:58;96224.16;;;19.88;73.33
71621;BME280;59471;42.254;23.102;2023-07-13T04:37:25;96217.31;;;19.80;74.30
71621;BME280;59471;42.254;23.102;2023-07-13T04:39:52;96214.06;;;19.78;74.43
71621;BME280;59471;42.254;23.102;2023-07-13T04:42:17;96217.47;;;19.97;75.03
71621;BME280;59471;42.254;23.102;2023-07-13T04:44:50;96219.00;;;20.05;73.64
71621;BME280;59471;42.254;23.102;2023-07-13T04:47:17;96226.53;;;20.20;73.87
71621;BME280;59471;42.254;23.102;2023-07-13T04:49:44;96221.38;;;20.25;73.91
71621;BME280;59471;42.254;23.102;2023-07-13T04:52:10;96225.06;;;20.35;73.15
71621;BME280;59471;42.254;23.102;2023-07-13T04:54:36;96228.88;;;20.28;75.05
71621;BME280;59471;42.254;23.102;2023-07-13T04:57:03;96227.16;;;20.45;74.24
71621;BME280;59471;42.254;23.102;2023-07-13T04:59:34;96228.47;;;20.54;72.33
71621;BME280;59471;42.254;23.102;2023-07-13T05:02:00;96233.81;;;20.78;71.59
71621;BME280;59471;42.254;23.102;2023-07-13T05:04:26;96234.00;;;21.12;68.86
71621;BME280;59471;42.254;23.102;2023-07-13T05:06:52;96232.75;;;20.91;69.97
71621;BME280;59471;42.254;23.102;2023-07-13T05:09:18;96234.72;;;20.95;71.94
71621;BME280;59471;42.254;23.102;2023-07-13T05:11:43;96237.97;;;20.97;71.05
71621;BME280;59471;42.254;23.102;2023-07-13T05:14:09;96243.25;;;21.21;70.70
71621;BME280;59471;42.254;23.102;2023-07-13T05:16:35;96244.50;;;21.18;69.71
71621;BME280;59471;42.254;23.102;2023-07-13T05:19:01;96243.97;;;21.16;69.80
71621;BME280;59471;42.254;23.102;2023-07-13T05:21:28;96237.66;;;21.34;69.61
71621;BME280;59471;42.254;23.102;2023-07-13T05:23:54;96247.88;;;21.37;68.56
71621;BME280;59471;42.254;23.102;2023-07-13T05:26:19;96243.44;;;21.55;68.12
71621;BME280;59471;42.254;23.102;2023-07-13T05:28:46;96239.38;;;21.52;68.19
71621;BME280;59471;42.254;23.102;2023-07-13T05:31:12;96240.28;;;21.86;67.61
71621;BME280;59471;42.254;23.102;2023-07-13T05:33:38;96248.41;;;21.91;66.61
71621;BME280;59471;42.254;23.102;2023-07-13T05:36:04;96243.81;;;22.04;66.42
71621;BME280;59471;42.254;23.102;2023-07-13T05:38:29;96245.63;;;21.86;67.67
71621;BME280;59471;42.254;23.102;2023-07-13T05:40:56;96254.72;;;22.02;66.92
71621;BME280;59471;42.254;23.102;2023-07-13T05:43:22;96254.97;;;22.01;67.50
71621;BME280;59471;42.254;23.102;2023-07-13T05:45:48;96252.28;;;22.46;65.62
71621;BME280;59471;42.254;23.102;2023-07-13T05:48:15;96260.94;;;22.53;65.52
71621;BME280;59471;42.254;23.102;2023-07-13T05:50:40;96260.31;;;22.46;65.71
71621;BME280;59471;42.254;23.102;2023-07-13T05:53:06;96261.09;;;22.47;65.51
71621;BME280;59471;42.254;23.102;2023-07-13T05:55:32;96269.53;;;22.38;65.93
71621;BME280;59471;42.254;23.102;2023-07-13T05:57:59;96268.00;;;22.76;65.98
71621;BME280;59471;42.254;23.102;2023-07-13T06:00:26;96274.06;;;22.72;64.63
71621;BME280;59471;42.254;23.102;2023-07-13T06:02:52;96276.94;;;23.04;65.46
71621;BME280;59471;42.254;23.102;2023-07-13T06:05:18;96278.06;;;23.25;64.82
71621;BME280;59471;42.254;23.102;2023-07-13T06:07:43;96277.16;;;23.19;64.23
71621;BME280;59471;42.254;23.102;2023-07-13T06:10:09;96275.28;;;23.36;63.81
71621;BME280;59471;42.254;23.102;2023-07-13T06:12:35;96279.16;;;23.46;64.53
71621;BME280;59471;42.254;23.102;2023-07-13T06:15:01;96275.31;;;23.64;64.95
71621;BME280;59471;42.254;23.102;2023-07-13T06:17:26;96281.00;;;23.89;64.36
71621;BME280;59471;42.254;23.102;2023-07-13T06:19:52;96276.50;;;23.95;62.34
71621;BME280;59471;42.254;23.102;2023-07-13T06:22:17;96281.38;;;24.25;61.76
71621;BME280;59471;42.254;23.102;2023-07-13T06:24:43;96285.16;;;24.02;61.23
71621;BME280;59471;42.254;23.102;2023-07-13T06:27:08;96285.09;;;23.97;62.45
71621;BME280;59471;42.254;23.102;2023-07-13T06:29:34;96277.03;;;24.19;61.81
71621;BME280;59471;42.254;23.102;2023-07-13T06:31:59;96279.25;;;24.54;62.32
71621;BME280;59471;42.254;23.102;2023-07-13T06:34:25;96273.03;;;24.48;60.52
71621;BME280;59471;42.254;23.102;2023-07-13T06:36:51;96271.84;;;24.34;61.36
71621;BME280;59471;42.254;23.102;2023-07-13T06:39:16;96271.00;;;24.34;61.64
71621;BME280;59471;42.254;23.102;2023-07-13T06:41:42;96268.22;;;24.83;61.51
71621;BME280;59471;42.254;23.102;2023-07-13T06:44:07;96253.91;;;25.09;59.56
71621;BME280;59471;42.254;23.102;2023-07-13T06:46:33;96247.13;;;25.39;59.69
71621;BME280;59471;42.254;23.102;2023-07-13T06:48:58;96254.66;;;25.47;59.25
71621;BME280;59471;42.254;23.102;2023-07-13T06:51:24;96244.56;;;25.64;57.08
71621;BME280;59471;42.254;23.102;2023-07-13T06:53:51;96239.78;;;25.77;56.73
71621;BME280;59471;42.254;23.102;2023-07-13T06:56:17;96239.78;;;25.82;56.42
71621;BME280;59471;42.254;23.102;2023-07-13T06:58:42;96227.72;;;25.84;54.98
71621;BME280;59471;42.254;23.102;2023-07-13T07:01:08;96228.03;;;25.93;53.48
71621;BME280;59471;42.254;23.102;2023-07-13T07:03:34;96224.56;;;26.13;53.64
71621;BME280;59471;42.254;23.102;2023-07-13T07:06:21;96224.59;;;26.33;53.05
71621;BME280;59471;42.254;23.102;2023-07-13T07:08:51;96223.25;;;26.31;52.44
71621;BME280;59471;42.254;23.102;2023-07-13T07:11:20;96220.59;;;26.62;53.02
71621;BME280;59471;42.254;23.102;2023-07-13T07:13:52;96231.88;;;26.53;52.78
71621;BME280;59471;42.254;23.102;2023-07-13T07:16:19;96235.06;;;26.40;52.58
71621;BME280;59471;42.254;23.102;2023-07-13T07:18:46;96243.66;;;26.57;51.87
71621;BME280;59471;42.254;23.102;2023-07-13T07:21:12;96229.72;;;26.55;52.02
71621;BME280;59471;42.254;23.102;2023-07-13T07:23:38;96234.78;;;26.47;51.63
71621;BME280;59471;42.254;23.102;2023-07-13T07:26:03;96222.72;;;26.60;51.31
71621;BME280;59471;42.254;23.102;2023-07-13T07:28:29;96219.25;;;26.64;52.03
71621;BME280;59471;42.254;23.102;2023-07-13T07:30:56;96221.63;;;26.96;51.21
71621;BME280;59471;42.254;23.102;2023-07-13T07:33:24;96216.78;;;26.93;49.95
71621;BME280;59471;42.254;23.102;2023-07-13T07:35:51;96214.59;;;27.16;51.69
71621;BME280;59471;42.254;23.102;2023-07-13T07:38:17;96217.19;;;27.41;52.85
71621;BME280;59471;42.254;23.102;2023-07-13T07:40:43;96210.91;;;27.61;50.90
71621;BME280;59471;42.254;23.102;2023-07-13T07:43:10;96208.00;;;27.53;49.19
71621;BME280;59471;42.254;23.102;2023-07-13T07:45:38;96207.59;;;27.20;50.30
71621;BME280;59471;42.254;23.102;2023-07-13T07:48:05;96214.59;;;27.06;49.62
71621;BME280;59471;42.254;23.102;2023-07-13T07:50:31;96208.63;;;27.29;50.09
71621;BME280;59471;42.254;23.102;2023-07-13T07:52:57;96203.25;;;27.34;49.25
71621;BME280;59471;42.254;23.102;2023-07-13T07:55:24;96204.66;;;27.81;47.70
71621;BME280;59471;42.254;23.102;2023-07-13T07:57:53;96202.31;;;28.09;49.71
71621;BME280;59471;42.254;23.102;2023-07-13T08:00:20;96197.25;;;28.41;50.59
71621;BME280;59471;42.254;23.102;2023-07-13T08:02:46;96196.59;;;28.55;50.50
71621;BME280;59471;42.254;23.102;2023-07-13T08:05:11;96185.81;;;28.55;48.91
71621;BME280;59471;42.254;23.102;2023-07-13T08:07:38;96188.34;;;28.75;48.21
71621;BME280;59471;42.254;23.102;2023-07-13T08:10:05;96181.09;;;28.71;49.62
71621;BME280;59471;42.254;23.102;2023-07-13T08:12:35;96182.31;;;28.83;49.10
71621;BME280;59471;42.254;23.102;2023-07-13T08:15:05;96180.94;;;28.86;48.18
71621;BME280;59471;42.254;23.102;2023-07-13T08:17:32;96185.06;;;28.78;48.16
71621;BME280;59471;42.254;23.102;2023-07-13T08:19:57;96187.81;;;28.97;47.20
71621;BME280;59471;42.254;23.102;2023-07-13T08:22:23;96171.66;;;29.21;48.09
71621;BME280;59471;42.254;23.102;2023-07-13T08:24:48;96175.19;;;28.93;48.54
71621;BME280;59471;42.254;23.102;2023-07-13T08:27:21;96180.56;;;29.22;49.10
71621;BME280;59471;42.254;23.102;2023-07-13T08:29:51;96186.38;;;29.53;49.24
71621;BME280;59471;42.254;23.102;2023-07-13T08:32:18;96184.84;;;29.47;48.22
71621;BME280;59471;42.254;23.102;2023-07-13T08:34:45;96169.84;;;29.78;48.37
71621;BME280;59471;42.254;23.102;2023-07-13T08:37:11;96180.59;;;29.65;46.62
71621;BME280;59471;42.254;23.102;2023-07-13T08:39:36;96180.16;;;29.76;47.04
71621;BME280;59471;42.254;23.102;2023-07-13T08:42:31;96167.09;;;29.84;46.09
71621;BME280;59471;42.254;23.102;2023-07-13T08:48:04;96161.19;;;29.82;46.93
71621;BME280;59471;42.254;23.102;2023-07-13T08:50:49;96154.13;;;29.86;47.88
71621;BME280;59471;42.254;23.102;2023-07-13T08:53:23;96155.97;;;30.04;49.48
71621;BME280;59471;42.254;23.102;2023-07-13T08:56:01;96150.34;;;30.00;48.31
71621;BME280;59471;42.254;23.102;2023-07-13T08:58:28;96152.56;;;30.50;47.48
71621;BME280;59471;42.254;23.102;2023-07-13T09:03:31;96141.88;;;30.07;46.33
71621;BME280;59471;42.254;23.102;2023-07-13T09:06:04;96137.00;;;30.09;47.34
71621;BME280;59471;42.254;23.102;2023-07-13T09:08:39;96131.66;;;30.69;47.65
71621;BME280;59471;42.254;23.102;2023-07-13T09:11:23;96130.81;;;30.88;47.73
71621;BME280;59471;42.254;23.102;2023-07-13T09:16:53;96121.78;;;31.06;46.87
71621;BME280;59471;42.254;23.102;2023-07-13T09:19:24;96108.13;;;31.39;46.76
71621;BME280;59471;42.254;23.102;2023-07-13T09:21:54;96108.31;;;30.74;45.34
71621;BME280;59471;42.254;23.102;2023-07-13T09:25:02;96106.75;;;31.28;45.89
71621;BME280;59471;42.254;23.102;2023-07-13T09:27:38;96097.22;;;31.44;44.21
71621;BME280;59471;42.254;23.102;2023-07-13T09:32:41;96092.50;;;31.08;43.52
71621;BME280;59471;42.254;23.102;2023-07-13T09:35:11;96090.69;;;31.17;44.38
71621;BME280;59471;42.254;23.102;2023-07-13T09:37:38;96092.28;;;31.46;42.31
71621;BME280;59471;42.254;23.102;2023-07-13T09:40:14;96087.19;;;31.67;42.51
71621;BME280;59471;42.254;23.102;2023-07-13T09:42:48;96093.88;;;32.06;40.90
71621;BME280;59471;42.254;23.102;2023-07-13T09:45:27;96098.97;;;31.85;41.71
71621;BME280;59471;42.254;23.102;2023-07-13T09:48:05;96103.53;;;32.21;39.96
71621;BME280;59471;42.254;23.102;2023-07-13T09:50:35;96096.06;;;31.95;40.91
71621;BME280;59471;42.254;23.102;2023-07-13T09:53:01;96100.84;;;31.98;39.53
71621;BME280;59471;42.254;23.102;2023-07-13T09:55:37;96092.75;;;32.29;40.77
71621;BME280;59471;42.254;23.102;2023-07-13T09:58:12;96091.06;;;32.42;38.70
71621;BME280;59471;42.254;23.102;2023-07-13T10:00:59;96091.59;;;32.44;37.27
71621;BME280;59471;42.254;23.102;2023-07-13T10:03:33;96088.81;;;32.67;38.96
71621;BME280;59471;42.254;23.102;2023-07-13T10:06:18;96090.63;;;32.80;37.65
71621;BME280;59471;42.254;23.102;2023-07-13T10:08:46;96092.47;;;32.62;38.47
71621;BME280;59471;42.254;23.102;2023-07-13T10:11:17;96087.78;;;32.85;36.40
71621;BME280;59471;42.254;23.102;2023-07-13T10:13:56;96080.41;;;32.77;36.65
71621;BME280;59471;42.254;23.102;2023-07-13T10:16:32;96091.41;;;33.29;38.44
71621;BME280;59471;42.254;23.102;2023-07-13T10:19:03;96087.47;;;33.70;36.82
71621;BME280;59471;42.254;23.102;2023-07-13T10:21:39;96075.81;;;33.96;36.18
71621;BME280;59471;42.254;23.102;2023-07-13T10:24:20;96076.44;;;33.92;34.82
71621;BME280;59471;42.254;23.102;2023-07-13T10:26:58;96066.88;;;33.86;33.94
71621;BME280;59471;42.254;23.102;2023-07-13T10:29:29;96065.88;;;34.00;32.96
71621;BME280;59471;42.254;23.102;2023-07-13T10:32:00;96070.50;;;34.17;34.25
71621;BME280;59471;42.254;23.102;2023-07-13T10:34:26;96059.50;;;34.13;33.30
71621;BME280;59471;42.254;23.102;2023-07-13T10:36:52;96055.91;;;34.38;33.14
71621;BME280;59471;42.254;23.102;2023-07-13T10:39:21;96047.28;;;34.36;32.59
71621;BME280;59471;42.254;23.102;2023-07-13T10:41:53;96047.22;;;34.54;32.10
71621;BME280;59471;42.254;23.102;2023-07-13T10:44:24;96039.28;;;34.31;31.53
71621;BME280;59471;42.254;23.102;2023-07-13T10:46:58;96038.22;;;34.15;29.88
71621;BME280;59471;42.254;23.102;2023-07-13T10:49:30;96022.44;;;34.47;31.43
71621;BME280;59471;42.254;23.102;2023-07-13T10:51:57;96027.00;;;34.72;31.67
71621;BME280;59471;42.254;23.102;2023-07-13T10:54:27;96026.69;;;35.24;32.43
71621;BME280;59471;42.254;23.102;2023-07-13T11:00:17;96009.56;;;35.03;28.41
71621;BME280;59471;42.254;23.102;2023-07-13T11:02:43;96020.31;;;35.20;30.10
71621;BME280;59471;42.254;23.102;2023-07-13T11:08:12;96026.03;;;35.69;29.40
71621;BME280;59471;42.254;23.102;2023-07-13T11:10:53;96013.16;;;35.58;29.26
71621;BME280;59471;42.254;23.102;2023-07-13T11:18:44;96011.56;;;35.57;30.96
71621;BME280;59471;42.254;23.102;2023-07-13T11:21:26;96010.34;;;35.45;31.14
71621;BME280;59471;42.254;23.102;2023-07-13T11:29:26;95996.69;;;36.00;28.85
71621;BME280;59471;42.254;23.102;2023-07-13T11:31:59;95991.78;;;36.26;28.46
71621;BME280;59471;42.254;23.102;2023-07-13T11:34:29;95989.78;;;35.57;27.18
71621;BME280;59471;42.254;23.102;2023-07-13T11:36:58;95988.09;;;35.64;29.86
71621;BME280;59471;42.254;23.102;2023-07-13T11:39:31;95985.22;;;35.94;29.84
71621;BME280;59471;42.254;23.102;2023-07-13T11:42:01;95978.91;;;36.02;27.55
71621;BME280;59471;42.254;23.102;2023-07-13T11:44:30;95978.06;;;36.23;27.50
71621;BME280;59471;42.254;23.102;2023-07-13T11:47:00;95974.88;;;36.33;25.36
71621;BME280;59471;42.254;23.102;2023-07-13T11:49:41;95964.63;;;36.17;26.93
71621;BME280;59471;42.254;23.102;2023-07-13T11:52:15;95957.19;;;36.51;25.29
71621;BME280;59471;42.254;23.102;2023-07-13T11:54:54;95959.66;;;36.56;25.55
71621;BME280;59471;42.254;23.102;2023-07-13T11:57:29;95945.53;;;36.66;28.63
71621;BME280;59471;42.254;23.102;2023-07-13T12:00:00;95934.88;;;36.25;24.35
71621;BME280;59471;42.254;23.102;2023-07-13T12:02:32;95935.69;;;35.80;26.35
71621;BME280;59471;42.254;23.102;2023-07-13T12:05:01;95931.00;;;36.13;26.17
71621;BME280;59471;42.254;23.102;2023-07-13T12:07:31;95924.75;;;36.13;26.30
71621;BME280;59471;42.254;23.102;2023-07-13T12:10:22;95931.47;;;36.52;25.44
71621;BME280;59471;42.254;23.102;2023-07-13T12:12:58;95926.91;;;36.69;25.50
71621;BME280;59471;42.254;23.102;2023-07-13T12:15:41;95922.94;;;36.54;25.44
71621;BME280;59471;42.254;23.102;2023-07-13T12:18:20;95923.69;;;36.79;25.25
71621;BME280;59471;42.254;23.102;2023-07-13T12:20:50;95921.63;;;36.88;24.68
71621;BME280;59471;42.254;23.102;2023-07-13T12:23:28;95924.53;;;36.67;25.20
71621;BME280;59471;42.254;23.102;2023-07-13T12:25:56;95917.53;;;37.34;27.10
71621;BME280;59471;42.254;23.102;2023-07-13T12:28:34;95913.03;;;37.42;24.82
71621;BME280;59471;42.254;23.102;2023-07-13T12:31:07;95916.03;;;37.37;25.26
71621;BME280;59471;42.254;23.102;2023-07-13T12:33:48;95912.06;;;37.06;24.88
71621;BME280;59471;42.254;23.102;2023-07-13T12:36:17;95910.47;;;37.05;26.46
71621;BME280;59471;42.254;23.102;2023-07-13T12:38:45;95910.88;;;36.79;26.68
71621;BME280;59471;42.254;23.102;2023-07-13T12:41:11;95914.84;;;36.70;27.11
71621;BME280;59471;42.254;23.102;2023-07-13T12:43:37;95919.56;;;37.09;26.95
71621;BME280;59471;42.254;23.102;2023-07-13T12:48:52;95901.75;;;37.28;26.50
71621;BME280;59471;42.254;23.102;2023-07-13T12:51:22;95901.19;;;37.50;27.86
71621;BME280;59471;42.254;23.102;2023-07-13T12:53:58;95902.53;;;37.56;27.50
71621;BME280;59471;42.254;23.102;2023-07-13T12:56:33;95893.66;;;37.91;25.96
71621;BME280;59471;42.254;23.102;2023-07-13T12:59:03;95896.88;;;37.49;26.99
71621;BME280;59471;42.254;23.102;2023-07-13T13:01:32;95883.88;;;37.30;27.40
71621;BME280;59471;42.254;23.102;2023-07-13T13:04:03;95884.56;;;36.99;28.69
71621;BME280;59471;42.254;23.102;2023-07-13T13:06:32;95887.94;;;37.37;28.35
71621;BME280;59471;42.254;23.102;2023-07-13T13:08:59;95883.44;;;37.72;28.71
71621;BME280;59471;42.254;23.102;2023-07-13T13:11:26;95876.00;;;37.73;28.03
71621;BME280;59471;42.254;23.102;2023-07-13T13:13:53;95867.69;;;37.97;28.92
71621;BME280;59471;42.254;23.102;2023-07-13T13:18:54;95871.31;;;37.57;27.58
71621;BME280;59471;42.254;23.102;2023-07-13T13:21:23;95871.03;;;38.07;28.96
71621;BME280;59471;42.254;23.102;2023-07-13T13:23:50;95870.75;;;38.12;27.44
71621;BME280;59471;42.254;23.102;2023-07-13T13:26:18;95865.41;;;37.99;27.05
71621;BME280;59471;42.254;23.102;2023-07-13T13:28:45;95864.47;;;37.64;28.24
71621;BME280;59471;42.254;23.102;2023-07-13T13:31:13;95869.06;;;37.91;27.68
71621;BME280;59471;42.254;23.102;2023-07-13T13:33:40;95864.47;;;37.64;27.93
71621;BME280;59471;42.254;23.102;2023-07-13T13:36:22;95859.38;;;38.10;28.55